createdAt,value
2022-11-14T00:00:21.830Z,15
2022-11-14T00:05:57.488Z,14.9
2022-11-14T00:11:32.947Z,14.8
2022-11-14T00:17:09.282Z,14.8
2022-11-14T00:22:44.714Z,14.7
2022-11-14T00:28:21.228Z,14.7
2022-11-14T00:33:56.435Z,14.6
2022-11-14T00:39:31.472Z,14.6
2022-11-14T00:45:06.869Z,14.6
2022-11-14T00:50:41.949Z,14.6
2022-11-14T00:56:17.194Z,14.6
2022-11-14T01:01:56.731Z,14.6
2022-11-14T01:07:33.389Z,14.6
2022-11-14T01:13:08.700Z,14.5
2022-11-14T01:18:44.309Z,14.5
2022-11-14T01:24:19.232Z,14.6
2022-11-14T01:29:55.102Z,14.7
2022-11-14T01:35:30.459Z,14.7
2022-11-14T01:41:05.479Z,14.7
2022-11-14T01:47:02.965Z,14.8
2022-11-14T01:52:36.363Z,14.8
2022-11-14T01:58:12.170Z,14.8
2022-11-14T02:03:47.073Z,14.8
2022-11-14T02:09:23.067Z,14.9
2022-11-14T02:14:58.850Z,14.9
2022-11-14T02:20:34.277Z,14.9
2022-11-14T02:26:10.122Z,14.9
2022-11-14T02:31:46.145Z,15
2022-11-14T02:37:21.171Z,15.1
2022-11-14T02:42:56.820Z,15.2
2022-11-14T02:48:53.698Z,15.1
2022-11-14T02:54:26.797Z,15
2022-11-14T03:00:02.361Z,15
2022-11-14T03:05:37.331Z,15.1
2022-11-14T03:11:13.908Z,15.1
2022-11-14T03:16:49.693Z,15.1
2022-11-14T03:22:24.566Z,15
2022-11-14T03:27:59.677Z,14.9
2022-11-14T03:33:36.005Z,14.8
2022-11-14T03:39:12.200Z,14.8
2022-11-14T03:44:51.502Z,14.8
2022-11-14T03:50:27.056Z,14.7
2022-11-14T03:56:02.107Z,14.6
2022-11-14T04:01:38.651Z,14.6
2022-11-14T04:07:13.990Z,14.6
2022-11-14T04:12:50.301Z,14.5
2022-11-14T04:18:26.647Z,14.4
2022-11-14T04:24:09.962Z,14.4
2022-11-14T04:29:46.675Z,14.4
2022-11-14T04:35:21.866Z,14.5
2022-11-14T04:40:57.613Z,14.6
2022-11-14T04:46:54.477Z,14.6
2022-11-14T04:52:27.763Z,14.5
2022-11-14T04:58:02.944Z,14.5
2022-11-14T05:03:38.070Z,14.5
2022-11-14T05:09:12.937Z,14.5
2022-11-14T05:14:48.840Z,14.5
2022-11-14T05:20:23.658Z,14.5
2022-11-14T05:25:58.827Z,14.5
2022-11-14T05:31:34.206Z,14.5
2022-11-14T05:37:09.229Z,14.5
2022-11-14T05:42:45.562Z,14.6
2022-11-14T05:48:42.614Z,14.6
2022-11-14T05:54:15.338Z,14.6
2022-11-14T05:59:50.457Z,14.7
2022-11-14T06:05:25.406Z,14.7
2022-11-14T06:11:01.231Z,14.7
2022-11-14T06:16:36.145Z,14.7
2022-11-14T06:22:11.111Z,14.7
2022-11-14T06:27:45.721Z,14.7
2022-11-14T06:33:20.535Z,14.7
2022-11-14T06:38:55.524Z,14.6
2022-11-14T06:44:31.333Z,14.7
2022-11-14T06:50:06.529Z,14.7
2022-11-14T06:55:41.488Z,14.8
2022-11-14T07:01:16.428Z,14.8
2022-11-14T07:06:51.873Z,14.9
2022-11-14T07:12:29.078Z,14.9
2022-11-14T07:18:03.934Z,15
2022-11-14T07:24:00.080Z,15.1
2022-11-14T07:29:35.291Z,15.1
2022-11-14T07:35:11.243Z,15.1
2022-11-14T07:40:48.043Z,14.8
2022-11-14T07:46:24.796Z,14.6
2022-11-14T07:52:09.200Z,13.7
2022-11-14T07:57:49.121Z,13.8
2022-11-14T08:03:26.919Z,13.4
2022-11-14T08:09:04.213Z,13.6
2022-11-14T08:14:40.260Z,13.6
2022-11-14T08:20:16.083Z,13.5
2022-11-14T08:25:52.008Z,13.5
2022-11-14T08:31:26.868Z,13.6
2022-11-14T08:37:02.954Z,13.6
2022-11-14T08:42:38.088Z,13.7
2022-11-14T08:48:21.612Z,14.2
2022-11-14T08:53:57.282Z,14.5
2022-11-14T08:59:32.393Z,14.6
2022-11-14T09:05:18.681Z,14.8
2022-11-14T09:10:54.677Z,15.3
2022-11-14T09:16:30.185Z,15.4
2022-11-14T09:22:05.568Z,15.5
2022-11-14T09:27:40.790Z,15.3
2022-11-14T09:33:24.600Z,15
2022-11-14T09:39:01.898Z,14.7
2022-11-14T09:44:37.037Z,14.9
2022-11-14T09:50:12.091Z,15.2
2022-11-14T09:55:47.052Z,15.3
2022-11-14T10:01:21.868Z,15.5
2022-11-14T10:06:56.947Z,15.3
2022-11-14T10:12:32.784Z,15.3
2022-11-14T10:18:08.045Z,15
2022-11-14T10:23:44.162Z,15.2
2022-11-14T10:29:20.684Z,15.5
2022-11-14T10:34:55.517Z,15.7
2022-11-14T10:40:31.943Z,15.9
2022-11-14T10:46:31.232Z,15.9
2022-11-14T10:52:11.797Z,15.8
2022-11-14T10:57:47.541Z,15.8
2022-11-14T11:03:22.989Z,15.5
2022-11-14T11:08:58.235Z,15.6
2022-11-14T11:14:34.684Z,16.4
2022-11-14T11:20:10.457Z,16
2022-11-14T11:25:45.457Z,16.1
2022-11-14T11:31:20.692Z,16
2022-11-14T11:36:55.594Z,15.9
2022-11-14T11:49:52.004Z,15.7
2022-11-14T11:55:29.817Z,15
2022-11-14T12:01:07.130Z,15
2022-11-14T12:06:42.050Z,14.9
2022-11-14T12:12:17.498Z,15
2022-11-14T12:18:00.012Z,15.1
2022-11-14T12:23:34.835Z,15.4
2022-11-14T12:29:09.962Z,15.9
2022-11-14T12:34:44.890Z,16
2022-11-14T12:40:20.386Z,15.9
2022-11-14T12:45:56.696Z,16.3
2022-11-14T12:51:31.593Z,16.7
2022-11-14T12:57:09.191Z,16.5
2022-11-14T13:02:44.272Z,16.3
2022-11-14T13:08:19.593Z,15.9
2022-11-14T13:13:54.719Z,15.4
2022-11-14T13:19:34.356Z,15.5
2022-11-14T13:25:09.674Z,16
2022-11-14T13:30:44.900Z,16.4
2022-11-14T13:36:42.583Z,16
2022-11-14T13:42:22.964Z,16.3
2022-11-14T13:48:14.895Z,15.8
2022-11-14T13:53:49.928Z,15.4
2022-11-14T13:59:25.959Z,15.3
2022-11-14T14:05:00.942Z,15.5
2022-11-14T14:10:36.052Z,15.4
2022-11-14T14:16:11.243Z,15.9
2022-11-14T14:21:46.204Z,16.2
2022-11-14T14:27:20.988Z,16.6
2022-11-14T14:32:55.852Z,16.5
2022-11-14T14:38:31.617Z,16.7
2022-11-14T14:44:20.059Z,16.6
2022-11-14T14:50:16.613Z,16.5
2022-11-14T14:55:51.563Z,16.6
2022-11-14T15:01:27.355Z,16.3
2022-11-14T15:07:03.660Z,16.1
2022-11-14T15:12:39.659Z,15.8
2022-11-14T15:18:14.602Z,15.8
2022-11-14T15:23:50.394Z,15.6
2022-11-14T15:29:25.287Z,15.5
2022-11-14T15:35:00.391Z,15.5
2022-11-14T15:40:39.304Z,15.4
2022-11-14T15:46:20.182Z,15.2
2022-11-14T15:51:57.231Z,15.1
2022-11-14T15:57:39.437Z,15
2022-11-14T16:03:15.786Z,14.8
2022-11-14T16:08:50.638Z,14.8
2022-11-14T16:14:25.718Z,14.6
2022-11-14T16:20:01.105Z,14.5
2022-11-14T16:25:37.022Z,14.4
2022-11-14T16:31:12.534Z,14.4
2022-11-14T16:36:47.408Z,14.4
2022-11-14T16:42:23.610Z,14.3
2022-11-14T16:47:59.138Z,14.3
2022-11-14T16:53:34.132Z,14.2
2022-11-14T16:59:09.258Z,14.2
2022-11-14T17:04:44.270Z,14.1
2022-11-14T17:10:19.305Z,14.1
2022-11-14T17:15:54.211Z,14.1
2022-11-14T17:21:30.081Z,14.1
2022-11-14T17:27:09.777Z,14
2022-11-14T17:33:09.441Z,14
2022-11-14T17:38:48.118Z,13.9
2022-11-14T17:44:27.798Z,13.9
2022-11-14T17:50:04.278Z,13.9
2022-11-14T17:55:39.091Z,13.9
2022-11-14T18:01:41.527Z,13.9
2022-11-14T18:07:18.280Z,13.9
2022-11-14T18:12:54.297Z,13.9
2022-11-14T18:18:29.492Z,13.9
2022-11-14T18:24:13.857Z,13.8
2022-11-14T18:29:49.608Z,13.8
2022-11-14T18:35:24.637Z,13.8
2022-11-14T18:41:08.445Z,13.8
2022-11-14T18:46:44.263Z,13.7
2022-11-14T18:52:19.342Z,13.6
2022-11-14T18:57:54.174Z,13.5
2022-11-14T19:03:29.439Z,13.4
2022-11-14T19:09:11.029Z,13.3
2022-11-14T19:14:46.565Z,13.3
2022-11-14T19:20:21.587Z,13.2
2022-11-14T19:25:56.541Z,13.1
2022-11-14T19:31:32.264Z,13
2022-11-14T19:37:07.156Z,12.9
2022-11-14T19:42:42.333Z,13.3
2022-11-14T19:48:17.325Z,13.7
2022-11-14T19:53:52.324Z,13.9
2022-11-14T19:59:36.090Z,14
2022-11-14T20:05:23.239Z,14
2022-11-14T20:10:59.098Z,14.1
2022-11-14T20:16:37.005Z,14.2
2022-11-14T20:22:11.851Z,14.2
2022-11-14T20:27:46.982Z,14.3
2022-11-14T20:33:22.125Z,14.3
2022-11-14T20:38:59.409Z,14.4
2022-11-14T20:44:34.249Z,14.4
2022-11-14T20:50:14.981Z,14.4
2022-11-14T20:55:52.301Z,14.4
2022-11-14T21:01:40.565Z,14.5
2022-11-14T21:07:32.313Z,14.5
2022-11-14T21:13:12.209Z,14.5
2022-11-14T21:18:55.299Z,14.5
2022-11-14T21:24:42.940Z,14.5
2022-11-14T21:30:20.578Z,14.5
2022-11-14T21:35:56.609Z,14.5
2022-11-14T21:42:22.002Z,14.6
2022-11-14T21:47:56.932Z,14.6
2022-11-14T21:53:32.553Z,14.6
2022-11-14T21:59:09.473Z,14.6
2022-11-14T22:04:44.224Z,14.6
2022-11-14T22:10:19.123Z,14.6
2022-11-14T22:15:55.387Z,14.6
2022-11-14T22:21:30.422Z,14.6
2022-11-14T22:27:05.717Z,14.6
2022-11-14T22:32:43.404Z,14.6
2022-11-14T22:38:18.223Z,14.6
2022-11-14T22:43:53.356Z,14.6
2022-11-14T22:49:33.770Z,14.5
2022-11-14T22:55:11.368Z,14.5
2022-11-14T23:00:53.450Z,14.5
2022-11-14T23:06:33.574Z,14.5
2022-11-14T23:12:08.378Z,14.5
2022-11-14T23:17:44.440Z,14.5
2022-11-14T23:23:19.201Z,14.5
2022-11-14T23:28:54.125Z,14.4
2022-11-14T23:34:31.893Z,14.4
2022-11-14T23:40:06.724Z,14.4
2022-11-14T23:45:41.577Z,14.4
2022-11-14T23:51:16.383Z,14.3
2022-11-14T23:56:52.245Z,14.3
